Weather

BOSCOMBE DOWN (EGDM)

METAR

EGDM 180550Z AUTO 06007KT 9999 FEW240/// 04/02 Q1026

TAF

TAF EGDM 130455Z 1306/1324 17015KT 9999 -RA BKN015 TEMPO 1306/1312 17018G28KT 6000 -RADZ BKN010 PROB30 TEMPO 1306/1315 3000 RADZ BKN006 BECMG 1312/1315 BKN008

BRISTOL AIRPORT (EGGD)

METAR

EGGD 180620Z AUTO 06016KT 4900 BR NCD 03/03 Q1025

TAF

TAF EGGD 180506Z 1806/1906 07012KT 4000 BR NSC PROB40 1806/1808 7000 NSW BECMG 1808/1811 CAVOK BECMG 1817/1820 8000 BECMG 1903/1906 BKN017 PROB40 TEMPO 1904/1906 BKN010

BRIZE NORTON (EGVN)

METAR

EGVN 180550Z 07009KT 4000 BR SKC 04/03 Q1027 NOSIG

TAF

TAF TAF EGVN 180428Z 1806/1906 08012KT 7000 HZ FEW015 PROB30 1806/1808 4000 BR BECMG 1809/1812 9999 NSW

OXFORD (EGTK)

METAR

EGTK 180620Z 06005KT 4000 BR OVC002 05/04 Q1028

Pressure charts

Click to see pressure charts
(redidrection to MetOffice website)